createdAt,value
2023-02-13T00:00:48.349Z,8.00
2023-02-13T00:04:02.788Z,10.93
2023-02-13T00:07:08.568Z,8.45
2023-02-13T00:10:14.062Z,7.28
2023-02-13T00:13:22.504Z,7.70
2023-02-13T00:19:41.319Z,6.22
2023-02-13T00:22:46.218Z,6.90
2023-02-13T00:25:51.591Z,8.55
2023-02-13T00:29:00.769Z,10.27
2023-02-13T00:32:06.347Z,6.70
2023-02-13T00:35:11.422Z,6.35
2023-02-13T00:38:17.104Z,8.60
2023-02-13T00:41:22.300Z,5.20
2023-02-13T00:44:30.235Z,5.57
2023-02-13T00:47:37.370Z,6.78
2023-02-13T00:50:43.020Z,4.80
2023-02-13T00:53:48.571Z,7.50
2023-02-13T00:56:54.215Z,5.80
2023-02-13T01:00:02.022Z,5.80
2023-02-13T01:03:07.940Z,8.07
2023-02-13T01:06:13.263Z,3.03
2023-02-13T01:09:18.484Z,5.63
2023-02-13T01:12:25.775Z,4.65
2023-02-13T01:15:34.117Z,5.97
2023-02-13T01:18:39.443Z,4.70
2023-02-13T01:21:47.376Z,5.78
2023-02-13T01:24:52.750Z,5.13
2023-02-13T01:27:58.232Z,3.30
2023-02-13T01:31:06.567Z,5.72
2023-02-13T01:34:12.580Z,3.58
2023-02-13T01:37:17.960Z,4.75
2023-02-13T01:40:23.753Z,4.78
2023-02-13T01:43:45.818Z,4.88
2023-02-13T01:46:54.707Z,4.22
2023-02-13T01:50:06.865Z,5.18
2023-02-13T01:53:14.886Z,3.13
2023-02-13T01:56:22.551Z,3.80
2023-02-13T01:59:29.422Z,6.40
2023-02-13T02:02:39.971Z,3.10
2023-02-13T02:05:45.863Z,5.20
2023-02-13T02:08:51.545Z,7.47
2023-02-13T02:11:59.370Z,4.72
2023-02-13T02:15:05.039Z,7.50
2023-02-13T02:18:16.393Z,4.30
2023-02-13T02:21:38.150Z,4.93
2023-02-13T02:24:55.883Z,5.13
2023-02-13T02:28:14.257Z,6.20
2023-02-13T02:31:24.466Z,5.47
2023-02-13T02:34:35.897Z,4.47
2023-02-13T02:37:47.588Z,3.53
2023-02-13T02:40:58.188Z,5.95
2023-02-13T02:44:09.066Z,5.20
2023-02-13T02:47:31.514Z,4.22
2023-02-13T02:53:45.389Z,5.25
2023-02-13T02:56:52.362Z,5.40
2023-02-13T03:00:14.680Z,5.40
2023-02-13T03:03:33.829Z,4.00
2023-02-13T03:06:42.943Z,4.53
2023-02-13T03:10:05.135Z,4.63
2023-02-13T03:13:24.811Z,7.80
2023-02-13T03:16:42.987Z,3.95
2023-02-13T03:20:07.528Z,6.57
2023-02-13T03:23:17.185Z,4.03
2023-02-13T03:26:45.945Z,3.10
2023-02-13T03:30:11.603Z,6.05
2023-02-13T03:33:32.648Z,5.22
2023-02-13T03:36:56.211Z,3.67
2023-02-13T03:40:04.938Z,2.63
2023-02-13T03:43:17.137Z,4.28
2023-02-13T03:46:22.730Z,6.40
2023-02-13T03:49:43.447Z,3.97
2023-02-13T03:52:49.540Z,5.30
2023-02-13T03:56:07.988Z,4.15
2023-02-13T03:59:21.088Z,5.88
2023-02-13T04:02:28.980Z,3.47
2023-02-13T04:05:36.628Z,4.75
2023-02-13T04:08:43.240Z,3.53
2023-02-13T04:11:53.060Z,6.38
2023-02-13T04:15:02.887Z,3.80
2023-02-13T04:18:11.848Z,5.28
2023-02-13T04:21:17.100Z,3.58
2023-02-13T04:24:21.978Z,4.13
2023-02-13T04:27:29.341Z,2.58
2023-02-13T04:30:37.685Z,3.13
2023-02-13T04:33:43.959Z,4.07
2023-02-13T04:36:49.294Z,2.80
2023-02-13T04:39:56.529Z,4.05
2023-02-13T04:43:01.486Z,3.85
2023-02-13T04:46:09.844Z,4.45
2023-02-13T04:49:15.021Z,5.22
2023-02-13T04:52:20.956Z,4.43
2023-02-13T04:55:26.107Z,1.83
2023-02-13T04:58:33.783Z,3.95
2023-02-13T05:01:41.374Z,7.15
2023-02-13T05:04:46.843Z,5.65
2023-02-13T05:07:51.849Z,4.70
2023-02-13T05:10:59.088Z,4.55
2023-02-13T05:14:05.488Z,4.25
2023-02-13T05:17:13.581Z,4.80
2023-02-13T05:20:19.980Z,4.90
2023-02-13T05:23:26.400Z,6.82
2023-02-13T05:26:31.672Z,6.97
2023-02-13T05:29:37.249Z,4.78
2023-02-13T05:32:47.412Z,6.60
2023-02-13T05:35:53.127Z,6.25
2023-02-13T05:39:00.418Z,4.95
2023-02-13T05:42:07.990Z,4.18
2023-02-13T05:45:13.774Z,5.55
2023-02-13T05:48:24.256Z,6.85
2023-02-13T05:51:29.206Z,6.30
2023-02-13T05:54:36.159Z,6.32
2023-02-13T05:57:41.753Z,6.47
2023-02-13T06:00:47.332Z,6.35
2023-02-13T06:03:57.132Z,8.30
2023-02-13T06:07:05.527Z,5.03
2023-02-13T06:10:11.877Z,7.18
2023-02-13T06:13:20.118Z,5.82
2023-02-13T06:16:26.726Z,6.43
2023-02-13T06:19:35.024Z,5.35
2023-02-13T06:22:39.967Z,4.90
2023-02-13T06:25:45.493Z,8.63
2023-02-13T06:28:52.482Z,3.88
2023-02-13T06:31:58.261Z,6.28
2023-02-13T06:35:08.794Z,5.03
2023-02-13T06:38:14.248Z,7.38
2023-02-13T06:41:20.407Z,10.18
2023-02-13T06:44:28.320Z,7.85
2023-02-13T06:47:34.862Z,6.78
2023-02-13T06:50:45.519Z,8.00
2023-02-13T06:53:51.590Z,5.65
2023-02-13T06:56:56.784Z,4.53
2023-02-13T07:00:05.242Z,6.20
2023-02-13T07:03:10.449Z,4.30
2023-02-13T07:06:23.328Z,10.57
2023-02-13T07:09:29.023Z,6.60
2023-02-13T07:12:36.953Z,4.65
2023-02-13T07:15:42.259Z,3.58
2023-02-13T07:18:48.486Z,6.03
2023-02-13T07:21:57.829Z,6.25
2023-02-13T07:25:05.126Z,5.13
2023-02-13T07:28:14.270Z,5.47
2023-02-13T07:31:19.216Z,5.55
2023-02-13T07:34:26.997Z,6.60
2023-02-13T07:37:34.633Z,6.47
2023-02-13T07:40:39.932Z,7.65
2023-02-13T07:43:46.226Z,4.07
2023-02-13T07:46:52.567Z,4.60
2023-02-13T07:49:58.108Z,4.80
2023-02-13T07:53:07.854Z,4.97
2023-02-13T07:56:13.313Z,4.90
2023-02-13T07:59:20.551Z,3.35
2023-02-13T08:02:25.719Z,6.90
2023-02-13T08:05:31.101Z,6.25
2023-02-13T08:08:39.867Z,6.75
2023-02-13T08:11:57.293Z,10.43
2023-02-13T08:15:02.253Z,8.15
2023-02-13T08:18:09.004Z,8.30
2023-02-13T08:21:15.138Z,10.35
2023-02-13T08:24:24.780Z,4.28
2023-02-13T08:27:30.448Z,5.18
2023-02-13T08:30:35.904Z,6.05
2023-02-13T08:33:41.810Z,5.70
2023-02-13T08:36:48.413Z,7.95
2023-02-13T08:39:55.971Z,8.65
2023-02-13T08:43:06.380Z,4.07
2023-02-13T08:46:15.192Z,6.13
2023-02-13T08:49:20.631Z,8.07
2023-02-13T08:52:25.985Z,6.15
2023-02-13T08:55:37.049Z,6.88
2023-02-13T08:58:43.359Z,4.07
2023-02-13T09:01:48.770Z,4.50
2023-02-13T09:04:55.141Z,5.55
2023-02-13T09:08:03.012Z,5.40
2023-02-13T09:11:10.589Z,8.52
2023-02-13T09:14:15.898Z,5.80
2023-02-13T09:17:21.992Z,4.35
2023-02-13T09:20:28.693Z,5.72
2023-02-13T09:23:34.253Z,5.20
2023-02-13T09:26:42.458Z,4.50
2023-02-13T09:29:50.147Z,4.47
2023-02-13T09:32:57.245Z,10.98
2023-02-13T09:36:02.344Z,4.28
2023-02-13T09:39:08.100Z,5.05
2023-02-13T09:42:21.236Z,7.40
2023-02-13T09:45:26.498Z,7.88
2023-02-13T09:48:32.772Z,5.40
2023-02-13T09:51:39.815Z,4.68
2023-02-13T09:54:44.871Z,6.35
2023-02-13T09:58:03.158Z,8.63
2023-02-13T10:01:10.594Z,10.45
2023-02-13T10:04:26.569Z,5.88
2023-02-13T10:07:40.068Z,5.70
2023-02-13T10:10:53.122Z,3.63
2023-02-13T10:14:05.079Z,7.35
2023-02-13T10:17:13.492Z,5.82
2023-02-13T10:20:22.865Z,3.65
2023-02-13T10:23:31.538Z,2.70
2023-02-13T10:26:49.850Z,7.15
2023-02-13T10:30:14.353Z,7.85
2023-02-13T10:33:23.079Z,4.75
2023-02-13T10:36:30.765Z,3.60
2023-02-13T10:39:40.664Z,5.90
2023-02-13T10:42:47.943Z,8.35
2023-02-13T10:46:06.847Z,7.82
2023-02-13T10:49:21.941Z,7.40
2023-02-13T10:52:30.575Z,6.60
2023-02-13T10:55:59.594Z,9.90
2023-02-13T10:59:10.191Z,9.38
2023-02-13T11:02:24.021Z,8.20
2023-02-13T11:05:33.036Z,9.48
2023-02-13T11:08:43.334Z,8.40
2023-02-13T11:11:48.625Z,8.40
2023-02-13T11:14:57.153Z,5.75
2023-02-13T11:18:15.759Z,8.95
2023-02-13T11:21:24.470Z,9.55
2023-02-13T11:24:30.675Z,9.98
2023-02-13T11:27:37.305Z,6.25
2023-02-13T11:30:44.613Z,8.57
2023-02-13T11:34:05.871Z,9.73
2023-02-13T11:37:17.806Z,7.57
2023-02-13T11:40:34.571Z,6.05
2023-02-13T11:43:46.683Z,8.13
2023-02-13T11:46:53.243Z,9.23
2023-02-13T11:50:01.368Z,8.30
2023-02-13T11:53:09.090Z,11.15
2023-02-13T11:56:15.170Z,5.57
2023-02-13T11:59:20.786Z,6.45
2023-02-13T12:02:26.658Z,9.75
2023-02-13T12:05:36.432Z,6.20
2023-02-13T12:08:42.130Z,8.80
2023-02-13T12:11:51.673Z,6.90
2023-02-13T12:14:59.213Z,7.10
2023-02-13T12:18:09.593Z,4.65
2023-02-13T12:21:27.342Z,4.53
2023-02-13T12:24:41.740Z,5.78
2023-02-13T12:27:54.280Z,5.88
2023-02-13T12:31:23.765Z,10.10
2023-02-13T12:34:52.049Z,4.80
2023-02-13T12:38:05.045Z,9.18
2023-02-13T12:41:17.088Z,3.63
2023-02-13T12:47:31.981Z,6.60
2023-02-13T12:50:44.082Z,9.48
2023-02-13T12:53:58.076Z,6.85
2023-02-13T12:57:09.922Z,5.40
2023-02-13T13:00:25.156Z,5.38
2023-02-13T13:03:38.801Z,6.97
2023-02-13T13:06:58.856Z,6.27
2023-02-13T13:10:20.985Z,10.13
2023-02-13T13:13:38.256Z,8.38
2023-02-13T13:16:47.734Z,7.78
2023-02-13T13:20:00.507Z,5.85
2023-02-13T13:23:10.282Z,8.07
2023-02-13T13:26:30.273Z,9.07
2023-02-13T13:29:43.119Z,7.15
2023-02-13T13:32:48.985Z,8.05
2023-02-13T13:35:59.309Z,12.75
2023-02-13T13:39:07.148Z,8.15
2023-02-13T13:42:17.516Z,5.20
2023-02-13T13:45:31.573Z,6.70
2023-02-13T13:48:48.857Z,6.97
2023-02-13T13:51:56.301Z,9.77
2023-02-13T13:55:04.840Z,6.40
2023-02-13T13:58:24.848Z,7.32
2023-02-13T14:01:34.941Z,7.00
2023-02-13T14:04:43.969Z,5.20
2023-02-13T14:07:52.163Z,11.70
2023-02-13T14:11:03.676Z,6.85
2023-02-13T14:14:25.090Z,5.93
2023-02-13T14:17:46.510Z,8.07
2023-02-13T14:20:59.088Z,6.03
2023-02-13T14:24:04.740Z,7.60
2023-02-13T14:27:22.037Z,9.48
2023-02-13T14:30:31.133Z,7.55
2023-02-13T14:33:36.821Z,9.15
2023-02-13T14:36:45.872Z,9.48
2023-02-13T14:40:06.634Z,6.95
2023-02-13T14:43:30.639Z,12.30
2023-02-13T14:49:43.984Z,6.30
2023-02-13T14:52:53.284Z,7.13
2023-02-13T14:56:01.495Z,6.22
2023-02-13T14:59:13.903Z,7.70
2023-02-13T15:02:23.263Z,5.13
2023-02-13T15:05:33.101Z,6.25
2023-02-13T15:08:44.485Z,9.35
2023-02-13T15:11:49.859Z,7.03
2023-02-13T15:14:56.092Z,10.90
2023-02-13T15:18:05.049Z,4.70
2023-02-13T15:21:13.053Z,6.65
2023-02-13T15:24:24.152Z,6.80
2023-02-13T15:27:32.162Z,6.63
2023-02-13T15:30:39.519Z,7.50
2023-02-13T15:33:51.046Z,6.28
2023-02-13T15:36:56.417Z,9.73
2023-02-13T15:40:16.284Z,5.10
2023-02-13T15:43:25.550Z,7.88
2023-02-13T15:46:33.269Z,7.28
2023-02-13T15:49:41.388Z,6.03
2023-02-13T15:52:48.935Z,6.10
2023-02-13T15:56:01.357Z,7.20
2023-02-13T15:59:09.083Z,7.43
2023-02-13T16:02:18.364Z,6.50
2023-02-13T16:05:39.021Z,8.93
2023-02-13T16:08:50.520Z,5.97
2023-02-13T16:11:58.219Z,13.82
2023-02-13T16:15:08.864Z,11.70
2023-02-13T16:18:22.257Z,7.90
2023-02-13T16:21:29.361Z,7.07
2023-02-13T16:24:34.566Z,10.45
2023-02-13T16:27:40.306Z,9.50
2023-02-13T16:30:49.377Z,8.20
2023-02-13T16:33:56.020Z,8.75
2023-02-13T16:37:04.121Z,9.35
2023-02-13T16:40:24.479Z,6.13
2023-02-13T16:43:43.312Z,9.88
2023-02-13T16:46:54.412Z,7.05
2023-02-13T16:50:02.300Z,15.13
2023-02-13T16:53:08.363Z,10.98
2023-02-13T16:56:14.378Z,10.45
2023-02-13T16:59:30.643Z,7.60
2023-02-13T17:02:38.898Z,9.43
2023-02-13T17:05:45.547Z,7.45
2023-02-13T17:08:50.473Z,8.38
2023-02-13T17:11:56.288Z,8.48
2023-02-13T17:15:02.577Z,7.35
2023-02-13T17:18:13.190Z,7.05
2023-02-13T17:21:19.596Z,11.32
2023-02-13T17:24:24.871Z,5.07
2023-02-13T17:27:29.985Z,9.13
2023-02-13T17:30:36.246Z,9.70
2023-02-13T17:33:45.411Z,8.48
2023-02-13T17:36:52.626Z,8.00
2023-02-13T17:39:57.671Z,6.95
2023-02-13T17:43:03.122Z,10.18
2023-02-13T17:46:09.942Z,12.35
2023-02-13T17:49:18.664Z,7.80
2023-02-13T17:52:25.100Z,6.13
2023-02-13T17:55:31.540Z,5.78
2023-02-13T17:58:36.373Z,10.40
2023-02-13T18:01:42.131Z,11.55
2023-02-13T18:04:50.416Z,10.55
2023-02-13T18:07:56.252Z,7.80
2023-02-13T18:11:01.234Z,7.22
2023-02-13T18:14:07.086Z,8.45
2023-02-13T18:17:12.540Z,7.35
2023-02-13T18:20:23.834Z,6.93
2023-02-13T18:23:28.735Z,7.40
2023-02-13T18:26:35.354Z,13.55
2023-02-13T18:29:40.443Z,7.30
2023-02-13T18:32:48.094Z,12.55
2023-02-13T18:36:00.724Z,11.63
2023-02-13T18:39:08.156Z,12.30
2023-02-13T18:42:16.145Z,9.10
2023-02-13T18:45:25.335Z,10.25
2023-02-13T18:48:32.621Z,8.27
2023-02-13T18:51:42.635Z,10.25
2023-02-13T18:54:47.514Z,10.35
2023-02-13T18:57:54.887Z,15.55
2023-02-13T19:01:07.946Z,8.63
2023-02-13T19:04:13.569Z,6.20
2023-02-13T19:07:21.447Z,8.07
2023-02-13T19:10:30.099Z,9.60
2023-02-13T19:13:35.724Z,11.43
2023-02-13T19:16:42.417Z,8.10
2023-02-13T19:19:48.977Z,10.05
2023-02-13T19:22:56.724Z,18.23
2023-02-13T19:26:03.359Z,17.02
2023-02-13T19:29:08.933Z,12.00
2023-02-13T19:32:13.890Z,10.35
2023-02-13T19:35:20.347Z,11.82
2023-02-13T19:38:27.905Z,10.65
2023-02-13T19:41:33.483Z,9.13
2023-02-13T19:44:38.416Z,10.23
2023-02-13T19:47:51.279Z,13.88
2023-02-13T19:50:59.422Z,12.00
2023-02-13T19:54:08.908Z,13.07
2023-02-13T19:57:14.905Z,7.55
2023-02-13T20:00:22.233Z,11.23
2023-02-13T20:03:32.697Z,11.82
2023-02-13T20:06:38.655Z,9.60
2023-02-13T20:09:48.753Z,10.93
2023-02-13T20:12:55.286Z,11.40
2023-02-13T20:16:01.108Z,7.45
2023-02-13T20:19:09.722Z,8.95
2023-02-13T20:22:16.892Z,10.93
2023-02-13T20:25:27.218Z,11.60
2023-02-13T20:28:32.438Z,9.57
2023-02-13T20:31:41.609Z,13.68
2023-02-13T20:34:59.005Z,12.40
2023-02-13T20:38:06.811Z,17.90
2023-02-13T20:41:15.758Z,11.00
2023-02-13T20:44:23.371Z,9.90
2023-02-13T20:47:30.606Z,9.60
2023-02-13T20:50:38.706Z,10.32
2023-02-13T20:53:43.859Z,13.15
2023-02-13T20:56:54.067Z,14.82
2023-02-13T21:00:00.487Z,11.57
2023-02-13T21:03:07.212Z,13.93
2023-02-13T21:06:17.272Z,13.25
2023-02-13T21:09:22.653Z,7.40
2023-02-13T21:12:30.425Z,13.30
2023-02-13T21:15:35.960Z,15.98
2023-02-13T21:18:41.499Z,13.25
2023-02-13T21:21:48.611Z,11.73
2023-02-13T21:24:53.901Z,12.80
2023-02-13T21:28:01.919Z,9.93
2023-02-13T21:31:10.169Z,15.00
2023-02-13T21:34:17.260Z,12.30
2023-02-13T21:37:23.586Z,15.63
2023-02-13T21:40:30.411Z,12.02
2023-02-13T21:43:38.775Z,9.43
2023-02-13T21:46:44.536Z,10.73
2023-02-13T21:49:50.518Z,13.20
2023-02-13T21:52:55.844Z,12.85
2023-02-13T21:56:00.772Z,9.95
2023-02-13T21:59:08.991Z,13.27
2023-02-13T22:02:14.095Z,17.75
2023-02-13T22:05:20.900Z,9.18
2023-02-13T22:08:27.911Z,14.95
2023-02-13T22:11:35.124Z,13.48
2023-02-13T22:14:45.038Z,15.45
2023-02-13T22:17:50.516Z,16.40
2023-02-13T22:20:55.300Z,15.38
2023-02-13T22:24:01.748Z,15.10
2023-02-13T22:27:08.993Z,15.52
2023-02-13T22:30:18.043Z,13.60
2023-02-13T22:33:24.182Z,13.18
2023-02-13T22:36:31.118Z,12.75
2023-02-13T22:39:37.685Z,9.82
2023-02-13T22:42:44.336Z,7.57
2023-02-13T22:45:51.917Z,14.32
2023-02-13T22:48:57.330Z,12.88
2023-02-13T22:52:02.720Z,11.65
2023-02-13T22:55:09.800Z,12.90
2023-02-13T22:58:15.477Z,10.93
2023-02-13T23:01:24.215Z,10.10
2023-02-13T23:04:29.106Z,10.13
2023-02-13T23:07:34.817Z,10.68
2023-02-13T23:10:41.720Z,13.15
2023-02-13T23:13:48.480Z,13.70
2023-02-13T23:17:08.739Z,9.93
2023-02-13T23:20:15.496Z,8.95
2023-02-13T23:23:20.383Z,20.13
2023-02-13T23:26:26.911Z,12.35
2023-02-13T23:29:31.820Z,8.85
2023-02-13T23:32:39.955Z,10.40
2023-02-13T23:35:45.040Z,7.82
2023-02-13T23:38:50.499Z,7.80
2023-02-13T23:41:56.807Z,11.80
2023-02-13T23:45:04.808Z,6.43
2023-02-13T23:48:13.017Z,11.65
2023-02-13T23:51:23.287Z,7.18
2023-02-13T23:54:28.470Z,9.18
2023-02-13T23:57:34.308Z,11.65
